KSUX/SUX METAR and TAF weather

Enter ICAO airport designator
Station Type Date Time Source
KSUX METAR 2022/08/12 13:52 UTC NOAA

KSUX 121352Z 18004KT 10SM CLR 23/17 A3010 RMK AO2 SLP185 T02280172


Station Type Date Time Source
KSUX Decoded METAR 2022/08/12 13:52 UTC NOAA

SIOUX GATEWAY AIRPORT, IA, United States (KSUX) 42-23N 96-23W 338M
Aug 12, 2022 - 09:52 AM EDT / 2022.08.12 1352 UTC
Wind: from the S (180 degrees) at 5 MPH (4 KT):0
Visibility: 10 mile(s):0
Sky conditions: clear
Temperature: 73.0 F (22.8 C)
Dew Point: 63.0 F (17.2 C)
Relative Humidity: 70%
Pressure (altimeter): 30.1 in. Hg (1019 hPa)
ob: KSUX 121352Z 18004KT 10SM CLR 23/17 A3010 RMK AO2 SLP185 T02280172
cycle: 14

Station Type Date Time Source
KSUX TAF 2022/08/12 12:22 UTC NOAA

TAF KSUX 121120Z 1212/1312 15007KT P6SM SCT150
FM121500 18010KT P6SM SKC
FM121700 19014G22KT P6SM SKC
FM130100 17010KT P6SM SCT250
FM130300 17009KT P6SM FEW200 WS020/21035KT
FM131000 20005KT P6SM SCT150

Example: see airport list